Time,TemperatureF,DewpointF,PressureIn,WindDirection,WindDirectionDegrees,WindSpeedMPH,WindSpeedGustMPH,Humidity,HourlyPrecipIn,Conditions,Clouds,dailyrainin,SoftwareType,DateUTC
2013-07-04 00:12:00,73.0,50.0,-100.00,ESE,110,6.0,6.0,44,0.00,,,0.00,,2013-07-04 05:12:00,
2013-07-04 00:32:00,72.0,49.0,-100.00,SE,143,6.0,6.0,44,0.00,,,0.00,,2013-07-04 05:32:00,
2013-07-04 00:43:00,72.0,49.0,-100.00,ESE,122,5.0,6.0,45,0.00,,,0.00,,2013-07-04 05:43:00,
2013-07-04 00:52:00,71.0,49.0,-100.00,ESE,107,6.0,6.0,46,0.00,,,0.00,,2013-07-04 05:52:00,
2013-07-04 01:01:00,71.0,49.0,-100.00,East,101,5.0,5.0,46,0.00,,,0.00,,2013-07-04 06:01:00,
2013-07-04 01:34:00,69.0,49.0,-100.00,ESE,120,5.0,5.0,49,0.00,,,0.00,,2013-07-04 06:34:00,
2013-07-04 01:43:00,69.0,49.0,-100.00,East,91,5.0,6.0,49,0.00,,,0.00,,2013-07-04 06:43:00,
2013-07-04 01:52:00,69.0,49.0,-100.00,East,96,9.0,10.0,49,0.00,,,0.00,,2013-07-04 06:52:00,
2013-07-04 02:02:00,71.0,50.0,-100.00,SSE,155,7.0,7.0,47,0.00,,,0.00,,2013-07-04 07:02:00,
2013-07-04 02:12:00,71.0,49.0,-100.00,SSE,166,8.0,8.0,46,0.00,,,0.00,,2013-07-04 07:12:00,
2013-07-04 02:22:00,71.0,49.0,-100.00,SE,132,6.0,7.0,46,0.00,,,0.00,,2013-07-04 07:22:00,
2013-07-04 02:34:00,71.0,50.0,-100.00,SSE,159,8.0,8.0,47,0.00,,,0.00,,2013-07-04 07:34:00,
2013-07-04 02:52:00,71.0,50.0,-100.00,SE,143,7.0,7.0,47,0.00,,,0.00,,2013-07-04 07:52:00,
2013-07-04 03:02:00,71.0,50.0,-100.00,SE,139,7.0,8.0,47,0.00,,,0.00,,2013-07-04 08:02:00,
2013-07-04 03:11:00,71.0,50.0,-100.00,SSE,152,6.0,8.0,48,0.00,,,0.00,,2013-07-04 08:11:00,
2013-07-04 03:22:00,70.0,49.0,-100.00,SE,132,7.0,7.0,48,0.00,,,0.00,,2013-07-04 08:22:00,
2013-07-04 03:33:00,70.0,50.0,-100.00,SSE,159,7.0,9.0,49,0.00,,,0.00,,2013-07-04 08:33:00,
2013-07-04 03:42:00,70.0,50.0,-100.00,SE,135,6.0,9.0,49,0.00,,,0.00,,2013-07-04 08:42:00,
2013-07-04 04:02:00,70.0,50.0,-100.00,ESE,122,4.0,4.0,50,0.00,,,0.00,,2013-07-04 09:02:00,
2013-07-04 04:11:00,69.0,50.0,-100.00,SSE,160,5.0,5.0,51,0.00,,,0.00,,2013-07-04 09:11:00,
2013-07-04 04:22:00,68.0,50.0,-100.00,SE,124,6.0,6.0,52,0.00,,,0.00,,2013-07-04 09:22:00,
2013-07-04 04:32:00,68.0,50.0,-100.00,SE,143,6.0,9.0,53,0.00,,,0.00,,2013-07-04 09:32:00,
2013-07-04 04:42:00,68.0,50.0,-100.00,South,172,6.0,6.0,53,0.00,,,0.00,,2013-07-04 09:42:00,
2013-07-04 04:52:00,68.0,50.0,-100.00,SE,146,6.0,7.0,53,0.00,,,0.00,,2013-07-04 09:52:00,
2013-07-04 05:11:00,69.0,51.0,-100.00,ESE,113,5.0,5.0,53,0.00,,,0.00,,2013-07-04 10:11:00,
2013-07-04 05:22:00,68.0,50.0,-100.00,SE,141,5.0,5.0,53,0.00,,,0.00,,2013-07-04 10:22:00,
2013-07-04 05:33:00,68.0,51.0,-100.00,SSE,149,4.0,4.0,54,0.00,,,0.00,,2013-07-04 10:33:00,
2013-07-04 05:42:00,67.0,50.0,-100.00,SSE,159,4.0,4.0,55,0.00,,,0.00,,2013-07-04 10:42:00,
2013-07-04 06:02:00,66.0,51.0,-100.00,South,176,2.0,2.0,58,0.00,,,0.00,,2013-07-04 11:02:00,
2013-07-04 06:11:00,65.0,50.0,-100.00,South,177,2.0,3.0,59,0.00,,,0.00,,2013-07-04 11:11:00,
2013-07-04 06:22:00,64.0,50.0,-100.00,SSE,159,3.0,3.0,61,0.00,,,0.00,,2013-07-04 11:22:00,
2013-07-04 06:33:00,64.0,50.0,-100.00,South,186,4.0,4.0,61,0.00,,,0.00,,2013-07-04 11:33:00,
2013-07-04 06:43:00,64.0,50.0,-100.00,South,173,6.0,7.0,61,0.00,,,0.00,,2013-07-04 11:43:00,
2013-07-04 06:53:00,65.0,51.0,-100.00,SSE,166,7.0,7.0,60,0.00,,,0.00,,2013-07-04 11:53:00,
2013-07-04 07:02:00,66.0,51.0,-100.00,SSE,159,6.0,7.0,59,0.00,,,0.00,,2013-07-04 12:02:00,
2013-07-04 07:11:00,66.0,51.0,-100.00,SSE,160,6.0,6.0,59,0.00,,,0.00,,2013-07-04 12:11:00,
2013-07-04 07:33:00,69.0,52.0,-100.00,SSE,160,7.0,7.0,55,0.00,,,0.00,,2013-07-04 12:33:00,
2013-07-04 07:43:00,69.0,52.0,-100.00,SE,146,5.0,7.0,55,0.00,,,0.00,,2013-07-04 12:43:00,
2013-07-04 08:02:00,69.0,52.0,-100.00,SE,139,7.0,8.0,55,0.00,,,0.00,,2013-07-04 13:02:00,
2013-07-04 08:12:00,70.0,53.0,-100.00,SSE,166,6.0,6.0,55,0.00,,,0.00,,2013-07-04 13:12:00,
2013-07-04 08:22:00,70.0,53.0,-100.00,SSE,155,3.0,3.0,55,0.00,,,0.00,,2013-07-04 13:22:00,
2013-07-04 08:33:00,71.0,54.0,-100.00,WSW,253,2.0,3.0,55,0.00,,,0.00,,2013-07-04 13:33:00,
2013-07-04 08:43:00,72.0,54.0,-100.00,South,177,0.0,0.0,54,0.00,,,0.00,,2013-07-04 13:43:00,
2013-07-04 08:53:00,73.0,55.0,-100.00,SSE,163,1.0,2.0,53,0.00,,,0.00,,2013-07-04 13:53:00,
2013-07-04 09:11:00,77.0,57.0,-100.00,SSE,158,2.0,3.0,51,0.00,,,0.00,,2013-07-04 14:11:00,
2013-07-04 09:33:00,78.0,58.0,-100.00,South,180,3.0,4.0,51,0.00,,,0.00,,2013-07-04 14:33:00,
2013-07-04 11:52:00,85.0,63.0,-100.00,SSW,203,2.0,0.0,48,0.00,,,0.00,,2013-07-04 16:52:00,
2013-07-04 12:01:00,84.0,63.0,-100.00,SSW,203,0.0,0.0,50,0.00,,,0.00,,2013-07-04 17:01:00,
2013-07-04 12:11:00,83.0,64.0,-100.00,WSW,245,2.0,2.0,52,0.00,,,0.00,,2013-07-04 17:11:00,
2013-07-04 12:22:00,83.0,64.0,-100.00,WSW,243,1.0,1.0,52,0.00,,,0.00,,2013-07-04 17:22:00,
2013-07-04 12:33:00,83.0,63.0,-100.00,SSE,162,2.0,2.0,51,0.00,,,0.00,,2013-07-04 17:33:00,
2013-07-04 12:43:00,83.0,63.0,-100.00,SSE,150,3.0,3.0,51,0.00,,,0.00,,2013-07-04 17:43:00,
2013-07-04 12:53:00,83.0,62.0,-100.00,South,176,4.0,6.0,50,0.00,,,0.00,,2013-07-04 17:53:00,
2013-07-04 13:01:00,83.0,62.0,-100.00,South,177,5.0,5.0,49,0.00,,,0.00,,2013-07-04 18:01:00,
2013-07-04 13:11:00,83.0,62.0,-100.00,SSE,167,6.0,7.0,49,0.00,,,0.00,,2013-07-04 18:11:00,
2013-07-04 13:43:00,85.0,61.0,-100.00,SSE,150,6.0,6.0,45,0.00,,,0.00,,2013-07-04 18:43:00,
2013-07-04 14:11:00,88.0,61.0,-100.00,SE,135,5.0,6.0,41,0.00,,,0.00,,2013-07-04 19:11:00,
2013-07-04 18:23:00,98.0,51.0,-100.00,SE,131,5.0,11.0,21,0.00,,,0.00,,2013-07-04 23:23:00,
2013-07-04 18:42:00,98.0,51.0,-100.00,SSE,159,4.0,4.0,21,0.00,,,0.00,,2013-07-04 23:42:00,
2013-07-04 18:52:00,97.0,51.0,-100.00,SE,142,7.0,7.0,21,0.00,,,0.00,,2013-07-04 23:52:00,
2013-07-04 19:11:00,96.0,52.0,-100.00,SSE,163,9.0,9.0,23,0.00,,,0.00,,2013-07-05 00:11:00,
2013-07-04 19:22:00,95.0,52.0,-100.00,SE,138,6.0,6.0,24,0.00,,,0.00,,2013-07-05 00:22:00,
2013-07-04 19:32:00,95.0,52.0,-100.00,SSE,158,7.0,10.0,24,0.00,,,0.00,,2013-07-05 00:32:00,
2013-07-04 19:43:00,96.0,52.0,-100.00,SSE,167,9.0,9.0,23,0.00,,,0.00,,2013-07-05 00:43:00,
2013-07-04 19:52:00,96.0,52.0,-100.00,SE,127,9.0,9.0,23,0.00,,,0.00,,2013-07-05 00:52:00,
2013-07-04 20:01:00,95.0,51.0,-100.00,SE,131,10.0,10.0,23,0.00,,,0.00,,2013-07-05 01:01:00,
2013-07-04 20:11:00,94.0,52.0,-100.00,ESE,120,9.0,9.0,24,0.00,,,0.00,,2013-07-05 01:11:00,
2013-07-04 20:22:00,93.0,51.0,-100.00,SE,135,10.0,10.0,24,0.00,,,0.00,,2013-07-05 01:22:00,
2013-07-04 20:42:00,92.0,51.0,-100.00,SSE,155,8.0,9.0,25,0.00,,,0.00,,2013-07-05 01:42:00,
2013-07-04 22:22:00,79.0,53.0,-100.00,ESE,108,5.0,5.0,40,0.00,,,0.00,,2013-07-05 03:22:00,
2013-07-04 22:42:00,79.0,53.0,-100.00,SE,138,5.0,5.0,41,0.00,,,0.00,,2013-07-05 03:42:00,
2013-07-04 23:11:00,76.0,53.0,-100.00,South,181,7.0,7.0,45,0.00,,,0.00,,2013-07-05 04:11:00,
2013-07-04 23:43:00,75.0,55.0,-100.00,SSE,167,5.0,5.0,49,0.00,,,0.00,,2013-07-05 04:43:00,
2013-07-04 23:53:00,75.0,55.0,-100.00,SE,135,5.0,6.0,49,0.00,,,0.00,,2013-07-05 04:53:00,